Pagrindinis puslapis
METAR-TAF:

METAR-TAF

Oro uostai :

Jämsä, Suomija

platuma: 61-51N, ilguma: 024-48E, Aukštis: 143 m

Dabartinis oras

Ataskaita buvo paskelbta 29 minutes, ne 02:50 UTC
Vėjas 10 kt iš Vakarų
Temperatūra 12°C
Drėgmė 94%
Slėgis 1016 hPa
Matomumas 10 km arba daugiau
Apsiniaukę ne aukštis 700 ft

METAR: EFHA 240250Z AUTO 27010KT 9999 OVC007 12/11 Q1016

Laikas: 06:19 (03:19 UTC)

Prognozė

Ataskaita buvo paskelbta 15 valandos ir 44 minutes, ne 11:35 UTC
Prognozė galioja nuo 23 metu 12 UTC su 23 metu 14 UTC
Vėjas 9 kt iš Pietvakarių
Matomumas 10 km arba daugiau
Su prošvaistėmis ne aukštis 2500 ft
Tikimybė 30% :
Laikinai
nuo 23 metu 12 UTC su 23 metu 14 UTC
Išsisklaidę debesys ne aukštis 3000 ft, Liūtiniai kamuoliniai debesys.
lietus

TAF: EFHA 231135Z 2312/2314 22009KT 9999 BKN025 PROB30 TEMPO 2312/2314 SHRA SCT030CB

Orai ataskaitas ir orų prognozės (METAR, TAF).

turimą stotys yra geltonos ir raudonos taškus žemėlapyje.

Perkelti pele per norėdami pamatyti stoties vardą.

Tada spustelėkite, norėdami matyti oro stebėjimo ir prognozės.

Norėdami pakeisti žemėlapį: spustelėkite ant žalios mygtukų su juodo kryžiaus žemyn,; žalią mygtuką su brūkšneliu, jei norite nutolinti; arba žalių rodyklių gretimoms žemėlapius.


METAR-TAF: